Time;durP1;ratioP1;P1;durP2;ratioP2;P2;SDS_P1;SDS_P2;PMS_P1;PMS_P2;Temp;Humidity;BMP_temperature;BMP_pressure;BME280_temperature;BME280_humidity;BME280_pressure;Samples;Min_cycle;Max_cycle;Signal;HPM_P1;HPM_P2
2023/04/21 00:01:58;;;;;;;21.15;14.50;;;8.90;99.90;;;;;;5056467;28;20501;-79
2023/04/21 00:04:24;;;;;;;20.95;13.48;;;8.90;99.90;;;;;;5055167;28;20048;-80
2023/04/21 00:06:51;;;;;;;20.88;14.10;;;8.90;99.90;;;;;;5054625;28;20045;-81
2023/04/21 00:09:17;;;;;;;18.13;14.15;;;8.90;99.90;;;;;;5054572;28;20041;-83
2023/04/21 00:11:43;;;;;;;23.45;13.95;;;8.90;99.90;;;;;;5038170;28;20546;-80
2023/04/21 00:14:08;;;;;;;20.55;14.45;;;8.90;99.90;;;;;;5038123;28;20268;-81
2023/04/21 00:16:34;;;;;;;19.50;14.02;;;8.90;99.90;;;;;;5054674;28;20066;-81
2023/04/21 00:19:01;;;;;;;24.45;14.82;;;8.90;99.90;;;;;;5054678;28;20041;-80
2023/04/21 00:21:27;;;;;;;16.80;13.00;;;8.80;99.90;;;;;;5054794;28;20459;-81
2023/04/21 00:23:52;;;;;;;22.17;13.93;;;8.80;99.90;;;;;;5054877;28;20037;-81
2023/04/21 00:26:19;;;;;;;21.80;13.73;;;8.80;99.90;;;;;;5055931;28;20047;-81
2023/04/21 00:28:45;;;;;;;21.30;13.25;;;8.70;99.90;;;;;;5056236;28;20052;-80
2023/04/21 00:31:10;;;;;;;19.08;13.02;;;8.70;99.90;;;;;;5054607;28;20401;-80
2023/04/21 00:33:36;;;;;;;19.63;13.63;;;8.70;99.90;;;;;;5055007;28;20045;-79
2023/04/21 00:36:02;;;;;;;20.45;13.68;;;8.60;99.90;;;;;;5054464;28;20512;-80
2023/04/21 00:38:27;;;;;;;22.48;13.98;;;8.60;99.90;;;;;;5054355;28;20041;-81
2023/04/21 00:40:53;;;;;;;22.15;13.48;;;8.60;99.90;;;;;;5056051;28;20049;-81
2023/04/21 00:43:19;;;;;;;20.08;13.55;;;8.50;99.90;;;;;;5055814;28;20094;-80
2023/04/21 00:45:48;;;;;;;21.08;13.02;;;8.50;99.90;;;;;;5054579;28;20087;-79
2023/04/21 00:48:14;;;;;;;20.38;13.70;;;8.50;99.90;;;;;;5054854;28;20091;-80
2023/04/21 00:50:40;;;;;;;21.20;12.95;;;8.50;99.90;;;;;;5054282;28;20424;-80
2023/04/21 00:53:06;;;;;;;20.05;13.23;;;8.50;99.90;;;;;;5055968;28;20413;-80
2023/04/21 00:55:31;;;;;;;19.75;13.30;;;8.50;99.90;;;;;;5059983;28;20032;-80
2023/04/21 00:57:57;;;;;;;21.88;14.13;;;8.40;99.90;;;;;;5065093;28;20045;-80
2023/04/21 01:00:23;;;;;;;21.50;14.02;;;8.40;99.90;;;;;;5055370;28;20033;-80
2023/04/21 01:02:49;;;;;;;21.13;13.85;;;8.40;99.90;;;;;;5056167;28;20457;-79
2023/04/21 01:05:15;;;;;;;21.45;13.65;;;8.40;99.90;;;;;;5056795;28;20033;-79
2023/04/21 01:07:41;;;;;;;20.15;13.70;;;8.40;99.90;;;;;;5056972;28;20124;-78
2023/04/21 01:10:07;;;;;;;21.65;13.15;;;8.40;99.90;;;;;;5054887;28;20106;-80
2023/04/21 01:12:40;;;;;;;20.58;13.50;;;8.40;99.90;;;;;;5054463;28;20051;-79
2023/04/21 01:15:06;;;;;;;17.67;12.93;;;8.40;99.90;;;;;;5054535;28;20083;-80
2023/04/21 01:17:32;;;;;;;20.05;13.07;;;8.30;99.90;;;;;;5054498;28;20041;-81
2023/04/21 01:20:03;;;;;;;21.95;13.75;;;8.30;99.90;;;;;;5055923;28;20103;-79
2023/04/21 01:22:30;;;;;;;20.17;13.25;;;8.30;99.90;;;;;;5055924;28;20045;-79
2023/04/21 01:24:56;;;;;;;19.33;13.88;;;8.20;99.90;;;;;;5054863;28;20130;-79
2023/04/21 01:27:21;;;;;;;22.88;13.02;;;8.20;99.90;;;;;;5054495;28;20104;-79
2023/04/21 01:29:49;;;;;;;22.00;14.02;;;8.20;99.90;;;;;;5054442;28;20451;-79
2023/04/21 01:32:18;;;;;;;18.52;13.00;;;8.20;99.90;;;;;;5055663;28;20052;-79
2023/04/21 01:34:44;;;;;;;19.40;13.05;;;8.30;99.90;;;;;;5054287;28;20033;-80
2023/04/21 01:37:11;;;;;;;22.42;13.30;;;8.20;99.90;;;;;;5053604;28;20120;-79
2023/04/21 01:39:42;;;;;;;19.75;12.82;;;8.20;99.90;;;;;;5054438;28;20089;-79
2023/04/21 01:42:08;;;;;;;18.85;13.05;;;8.20;99.90;;;;;;5053394;28;20496;-79
2023/04/21 01:44:34;;;;;;;20.83;12.90;;;8.30;99.90;;;;;;5053504;28;20041;-79
2023/04/21 01:46:59;;;;;;;20.13;12.80;;;8.20;99.90;;;;;;5054215;28;20041;-79
2023/04/21 01:49:25;;;;;;;20.25;12.60;;;8.20;99.90;;;;;;5052795;28;20033;-79
2023/04/21 01:51:51;;;;;;;18.05;12.68;;;8.20;99.90;;;;;;5052867;28;20549;-78
2023/04/21 01:54:17;;;;;;;22.00;13.50;;;8.20;99.90;;;;;;5052535;28;20041;-79
2023/04/21 01:56:42;;;;;;;18.58;13.60;;;8.20;99.90;;;;;;5068123;28;20680;-78
2023/04/21 01:59:08;;;;;;;23.13;13.75;;;8.20;99.90;;;;;;5052629;28;20048;-79
2023/04/21 02:01:34;;;;;;;20.48;12.75;;;8.10;99.90;;;;;;5052785;28;20091;-79
2023/04/21 02:04:01;;;;;;;20.42;13.00;;;8.10;99.90;;;;;;5053080;28;20049;-79
2023/04/21 02:06:27;;;;;;;18.65;12.27;;;8.10;99.90;;;;;;5036219;28;20497;-79
2023/04/21 02:08:52;;;;;;;18.48;12.82;;;8.10;99.90;;;;;;5052849;28;20043;-79
2023/04/21 02:11:18;;;;;;;19.90;13.40;;;8.00;99.90;;;;;;5053094;28;20098;-79
2023/04/21 02:13:43;;;;;;;22.88;13.80;;;8.00;99.90;;;;;;5052604;28;20106;-78
2023/04/21 02:16:09;;;;;;;19.40;13.82;;;8.00;99.90;;;;;;5052984;28;20033;-79
2023/04/21 02:18:38;;;;;;;20.98;13.68;;;8.00;99.90;;;;;;5054046;28;20033;-79
2023/04/21 02:21:05;;;;;;;18.17;12.95;;;8.00;99.90;;;;;;5052467;28;20045;-78
2023/04/21 02:23:30;;;;;;;21.95;14.38;;;8.00;99.90;;;;;;5053443;28;20055;-78
2023/04/21 02:25:56;;;;;;;18.63;13.82;;;8.00;99.90;;;;;;5052993;28;20033;-79
2023/04/21 02:28:21;;;;;;;22.48;13.95;;;8.00;99.90;;;;;;5052577;28;20051;-77
2023/04/21 02:30:47;;;;;;;18.50;13.13;;;8.00;99.90;;;;;;5052364;28;20129;-79
2023/04/21 02:33:12;;;;;;;21.50;14.13;;;8.00;99.90;;;;;;5051694;28;20037;-77
2023/04/21 02:35:38;;;;;;;20.52;14.65;;;8.00;99.90;;;;;;5054085;28;20037;-79
2023/04/21 02:38:07;;;;;;;23.70;15.38;;;8.00;99.90;;;;;;5052178;28;20087;-76
2023/04/21 02:40:33;;;;;;;22.45;14.43;;;8.00;99.90;;;;;;5053940;28;20045;-79
2023/04/21 02:42:58;;;;;;;21.85;13.93;;;8.00;99.90;;;;;;5053879;28;20037;-78
2023/04/21 02:45:24;;;;;;;25.17;14.55;;;8.00;99.90;;;;;;5052507;28;20563;-78
2023/04/21 02:47:50;;;;;;;20.48;13.68;;;7.90;99.90;;;;;;5051584;28;20105;-79
2023/04/21 02:50:16;;;;;;;23.05;14.38;;;8.00;99.90;;;;;;5053621;28;20041;-78
2023/04/21 02:52:41;;;;;;;23.95;14.35;;;7.90;99.90;;;;;;5052240;28;20037;-79
2023/04/21 02:55:07;;;;;;;20.67;14.60;;;7.90;99.90;;;;;;5054741;28;20040;-79
2023/04/21 02:57:32;;;;;;;21.38;13.88;;;7.90;99.90;;;;;;5047522;28;20485;-78
2023/04/21 02:59:58;;;;;;;21.02;15.05;;;7.90;99.90;;;;;;5053550;28;20400;-79
2023/04/21 03:02:24;;;;;;;22.98;14.73;;;7.80;99.90;;;;;;5051750;28;20057;-78
2023/04/21 03:04:50;;;;;;;22.88;14.75;;;7.80;99.90;;;;;;5052219;28;20068;-78
2023/04/21 03:07:15;;;;;;;20.95;13.43;;;7.80;99.90;;;;;;5051678;28;20045;-79
2023/04/21 03:09:41;;;;;;;20.13;14.18;;;7.80;99.90;;;;;;5053002;28;20043;-78
2023/04/21 03:12:07;;;;;;;20.40;14.07;;;7.80;99.90;;;;;;5052684;28;20104;-78
2023/04/21 03:14:32;;;;;;;21.80;14.10;;;7.80;99.90;;;;;;5052641;28;20037;-79
2023/04/21 03:16:58;;;;;;;23.52;14.82;;;7.80;99.90;;;;;;5053545;28;20049;-79
2023/04/21 03:19:23;;;;;;;20.88;14.23;;;7.70;99.90;;;;;;5057634;28;20033;-79
2023/04/21 03:21:49;;;;;;;21.45;14.38;;;7.70;99.90;;;;;;5057483;28;20049;-79
2023/04/21 03:24:14;;;;;;;25.58;14.68;;;7.70;99.90;;;;;;5057365;28;20056;-78
2023/04/21 03:26:40;;;;;;;24.67;14.57;;;7.70;99.90;;;;;;5057653;28;20044;-79
2023/04/21 03:29:06;;;;;;;22.67;14.23;;;7.70;99.90;;;;;;5057699;28;20079;-78
2023/04/21 03:31:31;;;;;;;20.10;14.50;;;7.60;99.90;;;;;;5060470;28;20095;-78
2023/04/21 03:33:57;;;;;;;22.98;14.55;;;7.60;99.90;;;;;;5058691;28;20072;-79
2023/04/21 03:36:22;;;;;;;23.77;14.75;;;7.60;99.90;;;;;;5057976;28;20408;-79
2023/04/21 03:38:48;;;;;;;19.85;13.68;;;7.60;99.90;;;;;;5057537;28;20350;-79
2023/04/21 03:41:13;;;;;;;23.05;13.77;;;7.60;99.90;;;;;;5057657;28;20052;-79
2023/04/21 03:43:39;;;;;;;20.52;13.25;;;7.60;99.90;;;;;;5059283;28;20032;-79
2023/04/21 03:46:05;;;;;;;23.13;13.65;;;7.50;99.90;;;;;;5058770;28;20037;-78
2023/04/21 03:48:31;;;;;;;23.48;14.65;;;7.60;99.90;;;;;;5058576;28;20051;-78
2023/04/21 03:50:56;;;;;;;19.58;14.15;;;7.50;99.90;;;;;;5059442;28;20118;-79
2023/04/21 03:53:22;;;;;;;20.85;13.55;;;7.50;99.90;;;;;;5059389;28;20488;-79
2023/04/21 03:55:51;;;;;;;21.27;14.23;;;7.50;99.90;;;;;;5064756;28;20032;-79
2023/04/21 03:58:16;;;;;;;22.08;13.95;;;7.50;99.90;;;;;;5065585;28;20163;-79
2023/04/21 04:00:42;;;;;;;27.88;14.90;;;7.50;99.90;;;;;;5058375;28;20040;-80
2023/04/21 04:03:07;;;;;;;21.95;14.52;;;7.50;99.90;;;;;;5059690;28;20078;-80
2023/04/21 04:05:35;;;;;;;21.60;13.32;;;7.50;99.90;;;;;;5059384;28;20061;-79
2023/04/21 04:08:01;;;;;;;17.42;13.60;;;7.40;99.90;;;;;;5059411;28;20052;-79
2023/04/21 04:10:27;;;;;;;21.77;13.80;;;7.50;99.90;;;;;;5059390;28;20116;-79
2023/04/21 04:12:54;;;;;;;20.65;13.73;;;7.50;99.90;;;;;;5057762;28;20562;-79
2023/04/21 04:15:19;;;;;;;19.20;13.70;;;7.50;99.90;;;;;;5057724;28;20045;-79
2023/04/21 04:17:45;;;;;;;19.77;13.80;;;7.50;99.90;;;;;;5058074;28;20411;-79
2023/04/21 04:20:11;;;;;;;19.38;14.00;;;7.50;99.90;;;;;;5059792;28;20033;-78
2023/04/21 04:22:37;;;;;;;21.70;13.80;;;7.50;99.90;;;;;;5059304;28;20112;-79
2023/04/21 04:25:04;;;;;;;19.05;13.38;;;7.50;99.90;;;;;;5057643;28;20128;-79
2023/04/21 04:27:30;;;;;;;18.58;12.85;;;7.50;99.90;;;;;;5059015;28;20036;-79
2023/04/21 04:29:56;;;;;;;17.48;12.40;;;7.50;99.90;;;;;;5053706;28;20485;-79
2023/04/21 04:32:21;;;;;;;20.27;14.00;;;7.50;99.90;;;;;;5054183;28;20049;-78
2023/04/21 04:34:47;;;;;;;19.95;13.30;;;7.50;99.90;;;;;;5054413;28;20033;-78
2023/04/21 04:37:13;;;;;;;19.67;13.30;;;7.50;99.90;;;;;;5054430;28;20080;-79
2023/04/21 04:39:38;;;;;;;22.17;13.68;;;7.50;99.90;;;;;;5054747;28;20086;-78
2023/04/21 04:42:10;;;;;;;20.90;13.02;;;7.50;99.90;;;;;;5054906;28;20044;-78
2023/04/21 04:44:36;;;;;;;20.27;13.48;;;7.60;99.90;;;;;;5056061;28;20040;-79
2023/04/21 04:47:02;;;;;;;23.00;13.25;;;7.60;99.90;;;;;;5054755;28;20033;-79
2023/04/21 04:49:28;;;;;;;19.55;12.88;;;7.60;99.90;;;;;;5054195;28;20124;-78
2023/04/21 04:51:54;;;;;;;19.95;12.15;;;7.60;99.90;;;;;;5054918;28;20116;-79
2023/04/21 04:54:19;;;;;;;18.02;13.00;;;7.60;99.90;;;;;;5055664;28;20135;-79
2023/04/21 04:56:45;;;;;;;16.73;12.38;;;7.60;99.90;;;;;;5068767;28;20048;-79
2023/04/21 04:59:11;;;;;;;17.50;12.02;;;7.70;99.90;;;;;;5054546;28;20070;-78
2023/04/21 05:01:37;;;;;;;18.05;11.93;;;7.70;99.90;;;;;;5055871;28;20041;-79
2023/04/21 05:04:03;;;;;;;18.00;12.65;;;7.70;99.90;;;;;;5054368;28;20102;-80
2023/04/21 05:06:28;;;;;;;17.52;12.27;;;7.70;99.90;;;;;;5053979;28;20500;-79
2023/04/21 05:08:54;;;;;;;20.13;12.70;;;7.80;99.90;;;;;;5055231;28;20044;-79
2023/04/21 05:11:21;;;;;;;17.85;11.77;;;7.80;99.90;;;;;;5056027;28;20381;-80
2023/04/21 05:13:46;;;;;;;21.60;12.77;;;7.80;99.90;;;;;;5054691;28;20041;-79
2023/04/21 05:16:12;;;;;;;19.02;12.68;;;7.90;99.90;;;;;;5053938;28;20044;-80
2023/04/21 05:18:37;;;;;;;20.77;12.63;;;8.00;99.90;;;;;;5053513;28;20045;-79
2023/04/21 05:21:03;;;;;;;20.70;11.80;;;8.00;99.90;;;;;;5054244;28;20111;-78
2023/04/21 05:23:29;;;;;;;17.88;11.88;;;8.00;99.90;;;;;;5054054;28;20106;-80
2023/04/21 05:25:55;;;;;;;21.60;12.52;;;8.10;99.90;;;;;;5054069;28;20112;-79
2023/04/21 05:28:22;;;;;;;18.20;11.98;;;8.10;99.90;;;;;;5053915;28;20041;-78
2023/04/21 05:30:47;;;;;;;19.38;11.57;;;8.10;99.90;;;;;;5054739;28;20049;-80
2023/04/21 05:33:13;;;;;;;19.05;11.02;;;8.20;99.90;;;;;;5058047;28;20059;-79
2023/04/21 05:35:39;;;;;;;22.25;11.55;;;8.20;99.90;;;;;;5053897;28;20041;-79
2023/04/21 05:38:05;;;;;;;17.98;11.23;;;8.20;99.90;;;;;;5053980;28;20094;-80
2023/04/21 05:40:30;;;;;;;18.88;11.38;;;8.30;99.90;;;;;;5054954;28;20040;-80
2023/04/21 05:42:56;;;;;;;17.25;10.73;;;8.40;99.90;;;;;;5054547;28;20072;-79
2023/04/21 05:45:21;;;;;;;18.02;10.75;;;8.40;99.90;;;;;;5054183;28;20095;-80
2023/04/21 05:47:47;;;;;;;15.95;11.45;;;8.50;99.90;;;;;;5054773;28;20045;-80
2023/04/21 05:50:12;;;;;;;20.13;12.35;;;8.50;99.90;;;;;;5054272;28;20049;-79
2023/04/21 05:52:38;;;;;;;21.13;11.73;;;8.40;99.90;;;;;;5055209;28;20051;-78
2023/04/21 05:55:04;;;;;;;18.58;10.77;;;8.60;99.90;;;;;;5054491;28;20037;-80
2023/04/21 05:57:30;;;;;;;18.27;11.38;;;8.60;99.90;;;;;;5067504;28;20547;-80
2023/04/21 05:59:55;;;;;;;16.65;11.32;;;8.70;99.90;;;;;;5058473;28;20032;-80
2023/04/21 06:02:21;;;;;;;16.05;10.80;;;8.70;99.90;;;;;;5053772;28;20048;-80
2023/04/21 06:04:47;;;;;;;16.65;10.77;;;8.80;99.90;;;;;;5054948;28;20081;-79
2023/04/21 06:07:12;;;;;;;15.30;10.50;;;8.80;99.90;;;;;;5055888;28;20549;-79
2023/04/21 06:09:40;;;;;;;18.05;11.38;;;8.90;99.90;;;;;;5056406;28;20037;-81
2023/04/21 06:12:05;;;;;;;18.42;12.00;;;9.00;99.90;;;;;;5054582;28;20044;-80
2023/04/21 06:14:31;;;;;;;18.70;10.52;;;9.10;99.90;;;;;;5053696;28;20123;-80
2023/04/21 06:16:57;;;;;;;17.52;10.80;;;9.20;99.90;;;;;;5054834;28;20412;-81
2023/04/21 06:19:23;;;;;;;17.35;11.23;;;9.20;99.90;;;;;;5037042;28;20524;-80
2023/04/21 06:21:48;;;;;;;20.65;10.63;;;9.30;99.90;;;;;;5054337;28;20080;-80
2023/04/21 06:24:14;;;;;;;15.65;10.52;;;9.40;99.90;;;;;;5053340;28;20045;-81
2023/04/21 06:26:40;;;;;;;14.48;11.30;;;9.50;99.90;;;;;;5053206;28;20041;-81
2023/04/21 06:29:06;;;;;;;17.20;10.80;;;9.60;99.90;;;;;;5054119;28;20047;-81
2023/04/21 06:31:31;;;;;;;13.27;10.50;;;9.70;99.90;;;;;;5054250;28;20109;-81
2023/04/21 06:33:57;;;;;;;17.40;10.95;;;9.80;99.90;;;;;;5054118;28;20540;-81
2023/04/21 06:36:22;;;;;;;18.75;10.45;;;9.90;99.90;;;;;;5053159;28;20051;-82
2023/04/21 06:38:48;;;;;;;15.35;10.23;;;10.00;99.90;;;;;;5052928;28;20055;-81
2023/04/21 06:41:14;;;;;;;14.27;10.32;;;10.10;99.90;;;;;;5054099;28;20044;-82
2023/04/21 06:43:40;;;;;;;15.65;10.05;;;10.30;99.90;;;;;;5054847;28;20183;-81
2023/04/21 06:46:05;;;;;;;13.15;9.38;;;10.40;99.90;;;;;;5052622;28;20047;-81
2023/04/21 06:48:31;;;;;;;17.10;10.52;;;10.50;99.90;;;;;;5054153;28;20037;-82
2023/04/21 06:50:57;;;;;;;22.15;10.88;;;10.60;99.90;;;;;;5055012;28;20055;-81
2023/04/21 06:53:22;;;;;;;16.65;10.35;;;10.70;99.90;;;;;;5053421;28;20128;-82
2023/04/21 06:55:48;;;;;;;15.60;9.30;;;10.80;99.90;;;;;;5061142;28;20086;-82
2023/04/21 06:58:14;;;;;;;14.18;9.98;;;10.80;99.90;;;;;;5059041;28;20045;-81
2023/04/21 07:00:40;;;;;;;17.23;10.32;;;11.00;99.90;;;;;;5051994;28;20085;-81
2023/04/21 07:03:06;;;;;;;14.60;10.18;;;11.10;99.90;;;;;;5052887;28;20040;-82
2023/04/21 07:05:31;;;;;;;18.60;10.60;;;11.20;99.90;;;;;;5055789;28;20038;-80
2023/04/21 07:07:58;;;;;;;15.35;9.65;;;11.30;99.90;;;;;;5055755;28;20524;-81
2023/04/21 07:10:25;;;;;;;16.60;9.52;;;11.30;99.90;;;;;;5052407;28;20501;-82
2023/04/21 07:12:51;;;;;;;17.60;9.35;;;11.40;99.90;;;;;;5052073;28;20116;-81
2023/04/21 07:15:16;;;;;;;15.23;9.05;;;11.40;99.90;;;;;;5052311;28;20164;-81
2023/04/21 07:17:42;;;;;;;18.17;10.07;;;11.70;99.90;;;;;;5052291;28;20282;-82
2023/04/21 07:20:08;;;;;;;14.80;9.38;;;11.50;99.90;;;;;;5052206;28;20576;-82
2023/04/21 07:22:34;;;;;;;15.43;9.73;;;11.60;99.90;;;;;;5051402;28;20048;-82
2023/04/21 07:25:05;;;;;;;13.73;9.32;;;11.60;99.90;;;;;;5052060;28;20057;-80
2023/04/21 07:27:31;;;;;;;18.58;10.15;;;11.70;99.90;;;;;;5052167;28;20049;-82
2023/04/21 07:29:56;;;;;;;16.08;9.95;;;11.80;99.90;;;;;;5051505;28;20140;-82
2023/04/21 07:32:22;;;;;;;15.75;9.48;;;11.90;99.90;;;;;;5051419;28;20498;-80
2023/04/21 07:34:48;;;;;;;15.95;9.65;;;12.00;99.90;;;;;;5051904;28;20527;-81
2023/04/21 07:37:15;;;;;;;15.30;10.02;;;12.10;99.90;;;;;;5057381;28;20070;-81
2023/04/21 07:39:40;;;;;;;15.98;9.52;;;12.20;99.90;;;;;;5052915;28;20044;-81
2023/04/21 07:42:07;;;;;;;15.65;9.23;;;12.30;99.90;;;;;;5053454;28;20106;-80
2023/04/21 07:44:33;;;;;;;14.65;9.48;;;12.30;99.90;;;;;;5035441;28;20040;-81
2023/04/21 07:46:58;;;;;;;14.23;9.73;;;12.40;99.90;;;;;;5035030;28;20067;-81
2023/04/21 07:49:24;;;;;;;16.50;10.30;;;12.50;99.90;;;;;;5051401;28;20504;-80
2023/04/21 07:51:50;;;;;;;14.68;9.65;;;12.50;99.90;;;;;;5051789;28;20087;-81
2023/04/21 07:54:16;;;;;;;15.13;9.23;;;12.60;99.90;;;;;;5054076;28;20052;-80
2023/04/21 07:56:41;;;;;;;18.05;9.75;;;12.70;99.90;;;;;;5065985;28;20037;-81
2023/04/21 07:59:07;;;;;;;17.08;9.93;;;12.80;99.90;;;;;;5052800;28;20159;-82
2023/04/21 08:01:33;;;;;;;13.82;9.20;;;12.90;99.90;;;;;;5052877;28;20080;-81
2023/04/21 08:03:58;;;;;;;19.15;9.35;;;13.00;99.90;;;;;;5059115;28;20092;-81
2023/04/21 08:06:24;;;;;;;15.13;9.60;;;13.10;99.90;;;;;;5065867;28;20112;-81
2023/04/21 08:08:50;;;;;;;18.55;9.88;;;13.20;99.90;;;;;;5054560;28;20049;-81
2023/04/21 08:11:15;;;;;;;17.45;9.90;;;13.30;99.90;;;;;;5055029;28;20041;-82
2023/04/21 08:13:41;;;;;;;16.15;10.10;;;13.30;99.90;;;;;;5055330;28;20072;-82
2023/04/21 08:16:06;;;;;;;14.75;9.43;;;13.40;99.90;;;;;;5054967;28;20060;-81
2023/04/21 08:18:32;;;;;;;16.95;9.75;;;13.50;99.90;;;;;;5055771;28;20091;-81
2023/04/21 08:20:57;;;;;;;17.23;10.20;;;13.60;99.90;;;;;;5038030;28;20036;-81
2023/04/21 08:23:23;;;;;;;16.00;9.48;;;13.70;99.90;;;;;;5056848;28;20083;-81
2023/04/21 08:25:49;;;;;;;16.63;9.90;;;13.80;99.90;;;;;;5054461;28;20045;-81
2023/04/21 08:28:14;;;;;;;16.55;9.65;;;13.90;99.90;;;;;;5055255;28;20124;-81
2023/04/21 08:30:40;;;;;;;13.77;9.73;;;14.10;99.90;;;;;;5054596;28;20041;-80
2023/04/21 08:33:09;;;;;;;15.55;9.57;;;14.20;99.90;;;;;;5054399;28;20037;-79
2023/04/21 08:35:35;;;;;;;14.13;9.02;;;14.20;99.90;;;;;;5058811;28;20069;-80
2023/04/21 08:38:01;;;;;;;15.43;9.00;;;14.30;99.90;;;;;;5056155;28;20040;-81
2023/04/21 08:40:32;;;;;;;15.00;9.32;;;14.50;99.90;;;;;;5056123;28;20040;-81
2023/04/21 08:42:57;;;;;;;16.83;9.30;;;14.60;99.90;;;;;;5054327;28;20090;-80
2023/04/21 08:45:23;;;;;;;15.23;8.93;;;14.70;99.90;;;;;;5054216;28;20056;-81
2023/04/21 08:47:49;;;;;;;16.38;9.45;;;14.80;99.90;;;;;;5054005;28;20040;-81
2023/04/21 08:50:15;;;;;;;14.95;9.10;;;14.90;99.90;;;;;;5054362;28;20045;-81
2023/04/21 08:52:40;;;;;;;18.67;9.32;;;15.00;99.90;;;;;;5054192;28;20464;-81
2023/04/21 08:55:06;;;;;;;12.30;8.32;;;15.10;99.90;;;;;;5054983;28;20457;-80
2023/04/21 08:57:32;;;;;;;13.82;8.65;;;15.20;99.90;;;;;;5066825;28;20080;-80
2023/04/21 08:59:57;;;;;;;15.07;8.32;;;15.30;99.90;;;;;;5053757;28;20068;-79
2023/04/21 09:02:23;;;;;;;13.52;9.00;;;15.40;99.90;;;;;;5053567;28;20099;-80
2023/04/21 09:04:50;;;;;;;16.80;9.30;;;15.50;99.90;;;;;;5053667;28;20052;-80
2023/04/21 09:07:36;;;;;;;14.15;8.85;;;15.50;99.90;;;;;;5055129;28;20043;-80
2023/04/21 09:10:03;;;;;;;12.27;9.00;;;15.50;99.90;;;;;;5054779;28;20045;-80
2023/04/21 09:12:29;;;;;;;14.25;9.80;;;15.70;99.90;;;;;;5053198;28;20040;-81
2023/04/21 09:14:56;;;;;;;12.93;9.07;;;15.70;99.90;;;;;;5052582;28;20076;-80
2023/04/21 09:17:31;;;;;;;12.55;9.10;;;15.80;99.90;;;;;;5052938;28;20071;-80
2023/04/21 09:19:57;;;;;;;16.88;9.02;;;15.80;99.90;;;;;;5054571;28;20299;-79
2023/04/21 09:22:26;;;;;;;17.30;8.32;;;15.80;99.90;;;;;;5054130;28;20041;-79
2023/04/21 09:24:57;;;;;;;15.10;9.48;;;15.90;99.90;;;;;;5054093;28;20060;-78
2023/04/21 09:27:23;;;;;;;12.68;8.80;;;15.90;99.90;;;;;;5052621;28;20037;-80
2023/04/21 09:29:48;;;;;;;13.52;8.70;;;16.00;99.90;;;;;;5052955;28;20112;-80
2023/04/21 09:32:18;;;;;;;13.50;9.02;;;16.00;99.90;;;;;;5054003;28;20037;-80
2023/04/21 09:34:44;;;;;;;13.93;8.85;;;16.00;99.90;;;;;;5053024;28;20041;-79
2023/04/21 09:37:12;;;;;;;16.52;9.00;;;16.10;99.90;;;;;;5052684;28;20076;-79
2023/04/21 09:39:37;;;;;;;13.70;8.27;;;16.10;99.90;;;;;;5052141;28;20033;-79
2023/04/21 09:42:03;;;;;;;12.27;8.30;;;16.20;99.90;;;;;;5052744;28;20045;-80
2023/04/21 09:44:30;;;;;;;11.27;8.70;;;16.30;99.90;;;;;;5053889;28;20040;-78
2023/04/21 09:47:03;;;;;;;13.88;7.93;;;16.50;99.90;;;;;;5054720;28;20094;-78
2023/04/21 09:49:30;;;;;;;15.35;8.35;;;16.60;99.90;;;;;;5054583;28;20516;-78
2023/04/21 09:52:00;;;;;;;14.57;8.85;;;16.80;99.90;;;;;;5052334;28;20037;-79
2023/04/21 09:54:34;;;;;;;13.65;8.10;;;16.90;99.90;;;;;;5052378;28;20036;-80
2023/04/21 09:57:05;;;;;;;14.00;8.50;;;17.10;99.90;;;;;;5066982;28;20436;-78
2023/04/21 09:59:43;;;;;;;13.85;8.88;;;17.20;99.90;;;;;;5051960;28;20041;-80
2023/04/21 10:02:11;;;;;;;13.88;8.02;;;17.30;99.90;;;;;;5053913;28;20091;-79
2023/04/21 10:04:40;;;;;;;16.40;8.77;;;17.40;99.90;;;;;;5054355;28;20096;-80
2023/04/21 10:07:05;;;;;;;16.40;8.45;;;17.40;99.90;;;;;;5052129;28;20068;-79
2023/04/21 10:09:40;;;;;;;16.48;8.32;;;17.40;99.90;;;;;;5053752;28;20047;-79
2023/04/21 10:12:07;;;;;;;15.60;9.00;;;17.50;99.90;;;;;;5053813;28;20441;-80
2023/04/21 10:14:33;;;;;;;15.32;8.68;;;17.40;99.90;;;;;;5052340;28;20041;-80
2023/04/21 10:17:07;;;;;;;16.15;8.55;;;17.50;99.90;;;;;;5051599;28;20064;-80
2023/04/21 10:19:38;;;;;;;14.85;8.70;;;17.60;99.90;;;;;;5052906;28;20055;-80
2023/04/21 10:22:09;;;;;;;11.20;8.27;;;17.70;99.90;;;;;;5053514;28;20052;-79
2023/04/21 10:24:39;;;;;;;16.13;7.90;;;17.80;99.90;;;;;;5035814;28;20040;-79
2023/04/21 10:27:09;;;;;;;19.58;8.57;;;17.90;99.90;;;;;;5050519;28;20063;-80
2023/04/21 10:29:35;;;;;;;15.05;8.30;;;17.90;99.90;;;;;;5051222;28;20044;-79
2023/04/21 10:32:02;;;;;;;14.63;8.27;;;18.10;99.90;;;;;;5050938;28;20455;-79
2023/04/21 10:34:36;;;;;;;14.20;8.32;;;18.20;99.90;;;;;;5052641;28;20044;-79
2023/04/21 10:37:05;;;;;;;17.35;8.57;;;18.30;99.90;;;;;;5051469;28;20036;-80
2023/04/21 10:39:36;;;;;;;13.77;8.27;;;18.40;99.90;;;;;;5051770;28;20033;-78
2023/04/21 10:42:26;;;;;;;12.77;7.60;;;18.60;99.90;;;;;;5052551;28;20045;-79
2023/04/21 10:44:57;;;;;;;14.70;7.97;;;18.60;99.90;;;;;;5051485;28;20052;-80
2023/04/21 10:47:44;;;;;;;12.85;7.93;;;18.80;99.90;;;;;;5052271;28;20094;-79
2023/04/21 10:50:19;;;;;;;11.23;7.78;;;19.00;99.90;;;;;;5052278;28;20045;-79
2023/04/21 10:53:08;;;;;;;12.40;7.70;;;19.10;99.90;;;;;;5052624;28;20451;-79
2023/04/21 10:55:34;;;;;;;11.15;7.82;;;19.20;99.90;;;;;;5056424;28;20515;-79
2023/04/21 10:58:04;;;;;;;15.50;7.78;;;19.10;99.90;;;;;;5059860;28;20044;-81
2023/04/21 11:00:30;;;;;;;11.27;7.18;;;19.30;99.90;;;;;;5051079;28;20037;-80
2023/04/21 11:02:58;;;;;;;11.85;6.88;;;19.40;99.90;;;;;;5050890;28;20048;-79
2023/04/21 11:05:28;;;;;;;11.50;7.20;;;19.50;99.90;;;;;;5051184;28;20264;-78
2023/04/21 11:08:04;;;;;;;12.60;7.25;;;19.50;99.90;;;;;;5051955;28;20072;-81
2023/04/21 11:10:41;;;;;;;14.27;7.53;;;19.60;99.90;;;;;;5051256;28;20083;-79
2023/04/21 11:13:07;;;;;;;10.20;6.32;;;19.80;99.90;;;;;;5052624;28;20104;-79
2023/04/21 11:15:33;;;;;;;11.43;6.30;;;20.00;99.90;;;;;;5051169;28;20125;-79
2023/04/21 11:17:58;;;;;;;12.27;6.68;;;20.10;99.90;;;;;;5052140;28;20061;-79
2023/04/21 11:20:24;;;;;;;11.77;7.00;;;20.20;99.90;;;;;;5051286;28;20041;-80
2023/04/21 11:22:52;;;;;;;11.25;6.97;;;20.20;99.90;;;;;;5050607;28;20097;-78
2023/04/21 11:25:18;;;;;;;10.00;5.95;;;20.30;99.90;;;;;;5051169;28;20056;-78
2023/04/21 11:27:55;;;;;;;13.13;6.95;;;20.30;99.90;;;;;;5054199;28;20040;-79
2023/04/21 11:30:33;;;;;;;12.27;6.30;;;20.40;99.90;;;;;;5058739;28;20049;-79
2023/04/21 11:32:59;;;;;;;12.52;6.30;;;20.30;99.90;;;;;;5051825;28;20052;-79
2023/04/21 11:35:25;;;;;;;11.40;6.30;;;20.10;99.90;;;;;;5050858;28;20107;-80
2023/04/21 11:37:51;;;;;;;10.82;5.68;;;20.10;99.90;;;;;;5052137;28;20692;-79
2023/04/21 11:40:17;;;;;;;14.52;6.55;;;19.90;99.90;;;;;;5054842;28;20082;-79
2023/04/21 11:42:43;;;;;;;11.52;5.90;;;19.70;99.90;;;;;;5055654;28;20146;-79
2023/04/21 11:45:16;;;;;;;10.40;5.50;;;19.40;99.90;;;;;;5054606;28;20063;-79
2023/04/21 11:47:41;;;;;;;8.60;5.70;;;19.30;99.90;;;;;;5053974;28;20060;-78
2023/04/21 11:50:08;;;;;;;8.55;5.03;;;19.30;99.90;;;;;;5054090;28;20783;-77
2023/04/21 11:52:36;;;;;;;10.13;5.50;;;19.80;99.90;;;;;;5055495;28;20155;-78
2023/04/21 11:55:17;;;;;;;12.50;4.90;;;20.30;99.90;;;;;;5054164;28;20040;-78
2023/04/21 11:57:43;;;;;;;7.53;4.65;;;20.60;99.90;;;;;;5048035;28;20045;-78
2023/04/21 12:00:10;;;;;;;9.55;4.00;;;21.00;99.90;;;;;;5054048;28;20404;-79
2023/04/21 12:02:37;;;;;;;8.02;3.42;;;21.30;99.90;;;;;;5053613;28;20055;-78
2023/04/21 12:05:13;;;;;;;9.77;3.42;;;21.40;99.70;;;;;;5055425;28;20094;-78
2023/04/21 12:07:42;;;;;;;8.32;3.40;;;21.10;98.30;;;;;;5054999;28;20033;-78
2023/04/21 12:10:16;;;;;;;9.23;3.63;;;20.70;97.70;;;;;;5054119;28;20045;-77
2023/04/21 12:12:43;;;;;;;6.45;2.95;;;20.50;97.50;;;;;;5053662;28;20033;-79
2023/04/21 12:15:10;;;;;;;5.90;3.70;;;20.50;97.80;;;;;;5054095;28;20569;-80
2023/04/21 12:17:46;;;;;;;10.07;3.58;;;20.40;96.90;;;;;;5054772;28;20073;-77
2023/04/21 12:20:15;;;;;;;12.20;3.35;;;20.40;97.80;;;;;;5053560;28;20045;-78
2023/04/21 12:22:41;;;;;;;7.20;3.60;;;20.30;97.90;;;;;;5054380;28;20045;-78
2023/04/21 12:25:07;;;;;;;7.88;3.60;;;20.30;97.40;;;;;;5054969;28;20045;-78
2023/04/21 12:27:33;;;;;;;8.63;3.63;;;20.20;96.10;;;;;;5053457;28;20041;-79
2023/04/21 12:29:59;;;;;;;12.38;3.75;;;20.30;96.50;;;;;;5053832;28;20456;-78
2023/04/21 12:32:25;;;;;;;13.00;3.70;;;20.50;96.60;;;;;;5055400;28;20397;-79
2023/04/21 12:34:50;;;;;;;8.70;3.70;;;20.90;97.00;;;;;;5054839;28;20040;-79